createdAt,value
2019-02-09T00:00:25.018Z,97555.09
2019-02-09T00:05:30.657Z,97556.86
2019-02-09T00:10:36.793Z,97562.12
2019-02-09T00:15:42.169Z,97557.22
2019-02-09T00:20:47.470Z,97548.11
2019-02-09T00:25:53.759Z,97529.73
2019-02-09T00:30:59.276Z,97533.56
2019-02-09T00:36:04.772Z,97523.66
2019-02-09T00:41:10.064Z,97531.40
2019-02-09T00:46:15.549Z,97528.86
2019-02-09T00:51:21.123Z,97523.58
2019-02-09T00:56:26.573Z,97511.28
2019-02-09T01:01:31.766Z,97508.41
2019-02-09T01:06:36.929Z,97498.09
2019-02-09T01:11:42.104Z,97483.95
2019-02-09T01:16:47.603Z,97473.33
2019-02-09T01:21:53.640Z,97472.43
2019-02-09T01:26:59.143Z,97458.34
2019-02-09T01:32:04.466Z,97457.03
2019-02-09T01:37:10.844Z,97448.70
2019-02-09T01:42:16.640Z,97437.45
2019-02-09T01:47:22.935Z,97424.29
2019-02-09T01:52:28.061Z,97427.41
2019-02-09T01:57:33.551Z,97416.47
2019-02-09T02:02:38.716Z,97413.16
2019-02-09T02:07:44.235Z,97392.68
2019-02-09T02:12:49.795Z,97393.36
2019-02-09T02:17:54.973Z,97387.31
2019-02-09T02:23:00.613Z,97401.57
2019-02-09T02:28:05.986Z,97375.80
2019-02-09T02:33:11.184Z,97375.00
2019-02-09T02:38:18.066Z,97370.97
2019-02-09T02:43:23.346Z,97355.40
2019-02-09T02:48:28.871Z,97327.23
2019-02-09T02:53:34.023Z,97303.09
2019-02-09T02:58:40.272Z,97280.38
2019-02-09T03:03:45.432Z,97276.12
2019-02-09T03:08:51.289Z,97281.27
2019-02-09T03:13:56.513Z,97284.29
2019-02-09T03:19:01.815Z,97286.31
2019-02-09T03:24:07.409Z,97280.87
2019-02-09T03:29:12.906Z,97292.59
2019-02-09T03:34:18.984Z,97277.12
2019-02-09T03:39:24.156Z,97286.63
2019-02-09T03:44:29.646Z,97276.51
2019-02-09T03:49:35.622Z,97286.91
2019-02-09T03:54:41.759Z,97303.37
2019-02-09T03:59:46.940Z,97289.64
2019-02-09T04:04:52.099Z,97293.15
2019-02-09T04:09:57.730Z,97274.44
2019-02-09T04:15:03.009Z,97273.52
2019-02-09T04:20:10.461Z,97287.97
2019-02-09T04:25:17.828Z,97252.06
2019-02-09T04:30:25.056Z,97264.22
2019-02-09T04:35:30.292Z,97267.26
2019-02-09T04:40:37.096Z,97273.94
2019-02-09T04:45:42.264Z,97254.56
2019-02-09T04:50:47.889Z,97252.66
2019-02-09T04:55:53.539Z,97296.60
2019-02-09T05:00:59.154Z,97262.28
2019-02-09T05:06:04.732Z,97289.06
2019-02-09T05:11:10.260Z,97278.67
2019-02-09T05:16:15.745Z,97272.31
2019-02-09T05:21:23.302Z,97263.94
2019-02-09T05:26:28.477Z,97255.07
2019-02-09T05:31:33.706Z,97266.98
2019-02-09T05:36:39.385Z,97267.59
2019-02-09T05:41:44.839Z,97268.58
2019-02-09T05:46:50.024Z,97260.22
2019-02-09T05:51:55.565Z,97254.25
2019-02-09T05:57:00.759Z,97283.62
2019-02-09T06:02:06.058Z,97294.31
2019-02-09T06:07:11.488Z,97307.05
2019-02-09T06:12:17.001Z,97301.78
2019-02-09T06:17:22.185Z,97302.09
2019-02-09T06:22:27.720Z,97287.16
2019-02-09T06:27:33.606Z,97290.77
2019-02-09T06:32:38.816Z,97290.88
2019-02-09T06:37:43.992Z,97305.31
2019-02-09T06:42:49.371Z,97291.78
2019-02-09T06:47:56.526Z,97295.04
2019-02-09T06:53:01.726Z,97288.17
2019-02-09T06:58:07.000Z,97285.04
2019-02-09T07:03:12.197Z,97289.97
2019-02-09T07:08:18.509Z,97287.26
2019-02-09T07:13:24.056Z,97343.45
2019-02-09T07:18:29.261Z,97321.77
2019-02-09T07:23:34.377Z,97323.17
2019-02-09T07:28:39.614Z,97351.64
2019-02-09T07:33:44.985Z,97363.09
2019-02-09T07:38:50.176Z,97378.11
2019-02-09T07:43:55.536Z,97388.09
2019-02-09T07:49:00.717Z,97380.23
2019-02-09T07:54:05.947Z,97410.32
2019-02-09T07:59:11.537Z,97402.05
2019-02-09T08:04:17.864Z,97403.69
2019-02-09T08:09:23.908Z,97397.83
2019-02-09T08:14:29.388Z,97382.97
2019-02-09T08:19:34.738Z,97404.28
2019-02-09T08:24:41.741Z,97397.14
2019-02-09T08:29:47.911Z,97405.88
2019-02-09T08:34:53.226Z,97405.36
2019-02-09T08:39:58.403Z,97418.66
2019-02-09T08:45:04.273Z,97400.46
2019-02-09T08:50:13.471Z,97399.08
2019-02-09T08:55:19.200Z,97395.14
2019-02-09T09:00:27.924Z,97398.16
2019-02-09T09:05:33.633Z,97379.21
2019-02-09T09:10:38.910Z,97406.89
2019-02-09T09:15:46.861Z,97402.20
2019-02-09T09:20:55.767Z,97413.31
2019-02-09T09:26:00.947Z,97409.91
2019-02-09T09:31:06.507Z,97418.42
2019-02-09T09:36:11.727Z,97424.09
2019-02-09T09:41:16.918Z,97435.19
2019-02-09T09:46:23.995Z,97431.22
2019-02-09T09:51:30.309Z,97443.91
2019-02-09T09:56:35.642Z,97467.93
2019-02-09T10:01:40.819Z,97453.51
2019-02-09T10:06:47.023Z,97459.15
2019-02-09T10:11:52.202Z,97454.43
2019-02-09T10:16:57.381Z,97469.17
2019-02-09T10:22:03.017Z,97484.13
2019-02-09T10:27:08.627Z,97491.40
2019-02-09T10:32:14.550Z,97487.81
2019-02-09T10:37:20.446Z,97489.80
2019-02-09T10:42:26.443Z,97500.56
2019-02-09T10:47:31.911Z,97496.32
2019-02-09T10:52:37.639Z,97514.84
2019-02-09T10:57:44.090Z,97526.67
2019-02-09T11:02:52.148Z,97551.33
2019-02-09T11:07:56.699Z,97546.13
2019-02-09T11:13:01.971Z,97557.56
2019-02-09T11:18:08.148Z,97539.39
2019-02-09T11:23:13.330Z,97573.52
2019-02-09T11:28:18.513Z,97535.95
2019-02-09T11:33:24.797Z,97538.80
2019-02-09T11:38:30.935Z,97524.95
2019-02-09T11:43:36.209Z,97544.06
2019-02-09T11:48:41.672Z,97528.23
2019-02-09T11:53:47.208Z,97537.05
2019-02-09T11:58:52.623Z,97564.63
2019-02-09T12:03:58.197Z,97550.25
2019-02-09T12:09:05.244Z,97535.02
2019-02-09T12:14:11.051Z,97531.59
2019-02-09T12:19:16.231Z,97504.77
2019-02-09T12:24:21.704Z,97525.48
2019-02-09T12:29:27.681Z,97516.03
2019-02-09T12:34:33.083Z,97524.52
2019-02-09T12:39:38.284Z,97527.15
2019-02-09T12:44:43.869Z,97526.88
2019-02-09T12:49:49.057Z,97529.25
2019-02-09T12:54:54.708Z,97534.00
2019-02-09T13:00:01.275Z,97546.42
2019-02-09T13:05:07.105Z,97548.38
2019-02-09T13:10:13.135Z,97541.39
2019-02-09T13:15:20.707Z,97531.31
2019-02-09T13:20:27.076Z,97572.76
2019-02-09T13:25:32.335Z,97534.09
2019-02-09T13:30:38.935Z,97552.93
2019-02-09T13:35:45.175Z,97531.31
2019-02-09T13:40:51.171Z,97556.94
2019-02-09T13:45:56.433Z,97541.20
2019-02-09T13:51:02.768Z,97545.66
2019-02-09T13:56:07.953Z,97533.77
2019-02-09T14:01:13.912Z,97546.21
2019-02-09T14:06:19.174Z,97524.47
2019-02-09T14:11:24.844Z,97531.86
2019-02-09T14:16:38.465Z,97537.96
2019-02-09T14:21:40.077Z,97544.30
2019-02-09T14:26:45.570Z,97543.13
2019-02-09T14:31:50.865Z,97544.73
2019-02-09T14:36:57.959Z,97561.41
2019-02-09T14:42:03.222Z,97558.55
2019-02-09T14:47:08.930Z,97575.55
2019-02-09T14:52:14.665Z,97577.16
2019-02-09T14:57:21.392Z,97580.48
2019-02-09T15:02:27.672Z,97576.08
2019-02-09T15:07:32.933Z,97572.26
2019-02-09T15:12:38.538Z,97583.88
2019-02-09T15:17:43.813Z,97577.61
2019-02-09T15:22:49.705Z,97567.49
2019-02-09T15:27:54.931Z,97567.80
2019-02-09T15:33:01.312Z,97569.19
2019-02-09T15:38:06.583Z,97579.36
2019-02-09T15:43:11.764Z,97583.73
2019-02-09T15:48:16.953Z,97578.50
2019-02-09T15:53:22.488Z,97586.58
2019-02-09T15:58:27.680Z,97582.67
2019-02-09T16:03:33.195Z,97584.25
2019-02-09T16:08:38.424Z,97577.67
2019-02-09T16:13:45.810Z,97581.56
2019-02-09T16:18:51.281Z,97603.80
2019-02-09T16:23:57.435Z,97600.92
2019-02-09T16:29:02.799Z,97595.41
2019-02-09T16:34:08.010Z,97597.17
2019-02-09T16:39:13.837Z,97616.72
2019-02-09T16:44:19.865Z,97617.06
2019-02-09T16:49:25.357Z,97617.89
2019-02-09T16:54:30.740Z,97618.71
2019-02-09T16:59:37.316Z,97609.42
2019-02-09T17:04:42.493Z,97607.83
2019-02-09T17:09:48.063Z,97621.27
2019-02-09T17:14:53.557Z,97641.51
2019-02-09T17:19:59.302Z,97640.91
2019-02-09T17:25:07.655Z,97630.70
2019-02-09T17:30:16.667Z,97648.00
2019-02-09T17:35:22.010Z,97649.32
2019-02-09T17:40:38.804Z,97660.03
2019-02-09T17:45:50.049Z,97666.71
2019-02-09T17:50:55.587Z,97673.91
2019-02-09T17:56:01.522Z,97673.11
2019-02-09T18:01:11.564Z,97671.67
2019-02-09T18:06:17.195Z,97682.70
2019-02-09T18:11:23.264Z,97699.00
2019-02-09T18:16:28.444Z,97688.37
2019-02-09T18:21:34.130Z,97690.27
2019-02-09T18:26:39.335Z,97693.92
2019-02-09T18:31:45.521Z,97708.66
2019-02-09T18:36:51.008Z,97703.23
2019-02-09T18:41:56.983Z,97716.97
2019-02-09T18:47:02.939Z,97703.33
2019-02-09T18:52:09.073Z,97708.30
2019-02-09T18:57:14.248Z,97713.28
2019-02-09T19:02:19.728Z,97715.91
2019-02-09T19:07:25.349Z,97721.17
2019-02-09T19:12:30.751Z,97714.89
2019-02-09T19:17:37.442Z,97731.57
2019-02-09T19:22:42.805Z,97716.73
2019-02-09T19:27:48.085Z,97721.56
2019-02-09T19:32:53.832Z,97730.48
2019-02-09T19:37:59.036Z,97730.16
2019-02-09T19:43:05.421Z,97748.36
2019-02-09T19:48:11.447Z,97739.58
2019-02-09T19:53:17.185Z,97749.34
2019-02-09T19:58:22.355Z,97753.25
2019-02-09T20:03:27.859Z,97762.57
2019-02-09T20:08:34.508Z,97753.66
2019-02-09T20:13:40.124Z,97766.42
2019-02-09T20:18:45.656Z,97778.06
2019-02-09T20:23:51.703Z,97777.47
2019-02-09T20:28:56.969Z,97779.61
2019-02-09T20:34:02.546Z,97780.39
2019-02-09T20:39:09.987Z,97773.41
2019-02-09T20:44:16.607Z,97778.52
2019-02-09T20:49:21.811Z,97766.36
2019-02-09T20:54:27.702Z,97777.01
2019-02-09T20:59:33.379Z,97791.58
2019-02-09T21:04:38.654Z,97792.81
2019-02-09T21:09:44.304Z,97790.78
2019-02-09T21:14:50.226Z,97796.09
2019-02-09T21:19:56.657Z,97793.19
2019-02-09T21:25:06.684Z,97799.19
2019-02-09T21:30:15.108Z,97802.16
2019-02-09T21:35:21.592Z,97796.47
2019-02-09T21:40:27.877Z,97801.36
2019-02-09T21:45:33.113Z,97809.86
2019-02-09T21:50:38.783Z,97809.95
2019-02-09T21:55:44.037Z,97808.59
2019-02-09T22:00:49.214Z,97813.19
2019-02-09T22:05:55.409Z,97813.47
2019-02-09T22:11:00.584Z,97812.23
2019-02-09T22:16:05.965Z,97815.77
2019-02-09T22:21:12.292Z,97824.06
2019-02-09T22:26:17.498Z,97818.73
2019-02-09T22:31:22.744Z,97824.73
2019-02-09T22:36:28.061Z,97819.47
2019-02-09T22:41:33.746Z,97814.78
2019-02-09T22:46:38.949Z,97811.74
2019-02-09T22:51:44.689Z,97818.24
2019-02-09T22:56:50.824Z,97817.08
2019-02-09T23:01:56.786Z,97832.36
2019-02-09T23:07:08.940Z,97833.41
2019-02-09T23:12:14.221Z,97833.77
2019-02-09T23:17:19.399Z,97842.77
2019-02-09T23:22:24.921Z,97830.89
2019-02-09T23:27:30.192Z,97828.07
2019-02-09T23:32:35.648Z,97825.52
2019-02-09T23:37:40.904Z,97827.88
2019-02-09T23:42:46.462Z,97824.92
2019-02-09T23:47:51.647Z,97821.44
2019-02-09T23:52:57.167Z,97819.37
2019-02-09T23:58:02.333Z,97825.38
